Flight Track Log - Related Links

Times and Time Zones

All times are in EDT time to prevent confusion due to time zone crossing. See the KAP169 flight status page for this flight to view local times or setup timezone preferences in your user account.

Time Position Orientation Groundspeed Altitude Reporting Facility
EDT Latitude Longitude Course Direction KTS MPH feet Rate Location/Type
Sat 06:24:38 PM 42.3667 -71.0167 270° West 98 113 400  Level KA90
Sat 06:25:26 PM 42.3667 -71.0500 270° West 106 122 1,300 842 Climbing KA90
Sat 06:27:00 PM 42.4346 -71.0076 25° Northeast  Level FlightAware Approximate
Sat 06:28:26 PM 42.3667 -71.1500 25° Northeast 94 108 3,600  Level KA90
Sat 06:29:26 PM 42.4000 -71.1667 340° North 152 175 4,000 150 Climbing KA90
Sat 06:30:26 PM 42.4500 -71.1667 360° North 176 203 3,900 150 Descending KA90
Sat 06:31:26 PM 42.5000 -71.1833 346° North 176 203 4,300 492 Climbing KA90
Sat 06:32:28 PM 42.5333 -71.1833 360° North 164 189 4,900 590 Climbing KA90
Sat 06:33:28 PM 42.5833 -71.1500 26° Northeast 166 191 5,500 550 Climbing KA90
Sat 06:34:28 PM 42.6167 -71.1333 20° North 170 196 6,000 550 Climbing KA90
Sat 06:35:28 PM 42.6667 -71.1000 26° Northeast 175 201 6,600 508 Climbing KA90
Sat 06:36:26 PM 42.7167 -71.0667 26° Northeast 178 205 7,000 203 Climbing KA90
Sat 06:37:26 PM 42.7667 -71.0500 14° North 203 234 7,000  Level KA90
Sat 06:38:29 PM 42.8167 -71.0167 26° Northeast 205 236 7,000  Level KA90
Sat 06:39:26 PM 42.8667 -70.9833 26° Northeast 198 228 7,000  Level KA90
Sat 06:40:26 PM 42.9167 -70.9500 26° Northeast 199 229 7,000  Level KA90
Sat 06:41:26 PM 42.9667 -70.9167 26° Northeast 197 227 7,000  Level KA90
Sat 06:42:26 PM 43.0000 -70.8500 56° Northeast 207 238 7,000  Level KA90
Sat 06:44:00 PM 43.0637 -70.8148 22° Northeast  Level FlightAware Approximate
Sat 06:51:00 PM 43.3469 -70.6499 27° Northeast  Level FlightAware Approximate
Sat 06:52:00 PM 43.3858 -70.6221 27° Northeast  Level FlightAware Approximate
Sat 06:53:00 PM 43.4213 -70.5892 59° Northeast  Level FlightAware Approximate
Sat 06:54:00 PM 43.4437 -70.5373 59° Northeast  Level FlightAware Approximate
Sat 06:55:00 PM 43.4661 -70.4853 59° Northeast  Level FlightAware Approximate
Sat 06:56:00 PM 43.4885 -70.4333 59° Northeast  Level FlightAware Approximate
Sat 06:57:00 PM 43.5108 -70.3813 59° Northeast  Level FlightAware Approximate
Sat 06:58:00 PM 43.5331 -70.3292 59° Northeast  Level FlightAware Approximate
Sat 06:59:00 PM 43.5554 -70.2771 59° Northeast  Level FlightAware Approximate
Sat 07:00:00 PM 43.5777 -70.2249 59° Northeast  Level FlightAware Approximate
Sat 07:01:00 PM 43.5999 -70.1727 60° Northeast  Level FlightAware Approximate
Sat 07:02:00 PM 43.6220 -70.1205 60° Northeast  Level FlightAware Approximate
Sat 07:03:00 PM 43.6439 -70.0679 60° Northeast  Level FlightAware Approximate
Sat 07:04:00 PM 43.6658 -70.0154 60° Northeast  Level FlightAware Approximate
Sat 07:05:00 PM 43.6876 -69.9628 60° Northeast  Level FlightAware Approximate
Sat 07:06:00 PM 43.7094 -69.9102 60° Northeast  Level FlightAware Approximate
Sat 07:07:00 PM 43.7312 -69.8575 60° Northeast  Level FlightAware Approximate
Sat 07:08:00 PM 43.7530 -69.8048 60° Northeast  Level FlightAware Approximate
Sat 07:09:00 PM 43.7747 -69.7520 60° Northeast  Level FlightAware Approximate
Sat 07:10:00 PM 43.7964 -69.6992 60° Northeast  Level FlightAware Approximate
Sat 07:11:00 PM 43.8187 -69.6470 47° Northeast  Level FlightAware Approximate
Sat 07:12:00 PM 43.8484 -69.6023 47° Northeast  Level FlightAware Approximate
Sat 07:13:00 PM 43.8636 -69.5455 71° East  Level FlightAware Approximate
Sat 07:14:00 PM 43.8901 -69.4997 61° Northeast  Level FlightAware Approximate
Sat 07:15:00 PM 43.9115 -69.4465 61° Northeast  Level FlightAware Approximate
Sat 07:16:00 PM 43.9328 -69.3932 61° Northeast  Level FlightAware Approximate
Sat 07:17:00 PM 43.9540 -69.3400 61° Northeast  Level FlightAware Approximate
Sat 07:18:00 PM 43.9754 -69.2867 61° Northeast  Level FlightAware Approximate
Sat 07:19:00 PM 43.9967 -69.2334 61° Northeast  Level FlightAware Approximate
Sat 07:20:00 PM 44.0178 -69.1800 65° Northeast  Level FlightAware Approximate
Sat 07:21:00 PM 44.0362 -69.1247 65° Northeast  Level FlightAware Approximate

Login

Don't have an account? Register now (free) for customized features, flight alerts, and more!